createdAt,value
2023-01-13T00:01:41.800Z,100306.72
2023-01-13T00:04:12.874Z,100300.81
2023-01-13T00:06:45.007Z,100302.94
2023-01-13T00:09:27.283Z,100297.63
2023-01-13T00:12:00.841Z,100307.81
2023-01-13T00:14:32.686Z,100301.91
2023-01-13T00:17:19.966Z,100306.22
2023-01-13T00:19:49.724Z,100304.34
2023-01-13T00:22:49.495Z,100296.56
2023-01-13T00:25:25.846Z,100280.44
2023-01-13T00:27:54.689Z,100287.41
2023-01-13T00:30:37.554Z,100288.50
2023-01-13T00:33:09.208Z,100286.91
2023-01-13T00:35:42.083Z,100280.44
2023-01-13T00:38:12.570Z,100270.81
2023-01-13T00:40:46.775Z,100277.75
2023-01-13T00:43:32.306Z,100272.41
2023-01-13T00:49:19.461Z,100261.41
2023-01-13T00:52:41.921Z,100262.75
2023-01-13T00:55:14.883Z,100261.09
2023-01-13T00:57:57.183Z,100256.28
2023-01-13T01:01:11.004Z,100255.22
2023-01-13T01:03:50.183Z,100252.28
2023-01-13T01:06:32.076Z,100239.69
2023-01-13T01:09:19.710Z,100230.28
2023-01-13T01:12:18.947Z,100228.41
2023-01-13T01:15:19.775Z,100229.19
2023-01-13T01:21:25.703Z,100226.28
2023-01-13T01:23:57.999Z,100227.34
2023-01-13T01:26:53.205Z,100232.94
2023-01-13T01:29:48.673Z,100236.97
2023-01-13T01:32:40.848Z,100242.31
2023-01-13T01:35:24.128Z,100238.06
2023-01-13T01:37:56.444Z,100235.34
2023-01-13T01:40:29.558Z,100224.63
2023-01-13T01:43:31.491Z,100235.34
2023-01-13T01:46:31.832Z,100230.25
2023-01-13T01:49:22.847Z,100218.75
2023-01-13T01:55:07.927Z,100219.22
2023-01-13T01:57:42.970Z,100213.59
2023-01-13T02:00:19.556Z,100209.03
2023-01-13T02:02:55.405Z,100209.59
2023-01-13T02:05:35.039Z,100204.22
2023-01-13T02:08:12.028Z,100211.47
2023-01-13T02:11:11.587Z,100207.19
2023-01-13T02:13:51.368Z,100207.19
2023-01-13T02:16:45.772Z,100205.59
2023-01-13T02:19:41.192Z,100200.50
2023-01-13T02:22:42.438Z,100194.03
2023-01-13T02:25:39.629Z,100201.03
2023-01-13T02:28:30.216Z,100195.13
2023-01-13T02:31:35.856Z,100190.28
2023-01-13T02:34:31.652Z,100181.16
2023-01-13T02:37:31.212Z,100189.41
2023-01-13T02:40:25.381Z,100184.88
2023-01-13T02:43:26.210Z,100184.88
2023-01-13T02:46:27.445Z,100174.16
2023-01-13T02:49:32.574Z,100166.34
2023-01-13T02:52:22.370Z,100174.69
2023-01-13T02:55:04.758Z,100166.91
2023-01-13T02:57:39.802Z,100157.22
2023-01-13T03:00:24.266Z,100159.13
2023-01-13T03:06:00.585Z,100146.50
2023-01-13T03:08:45.052Z,100141.41
2023-01-13T03:11:21.457Z,100145.72
2023-01-13T03:14:27.461Z,100136.09
2023-01-13T03:17:11.344Z,100140.91
2023-01-13T03:19:47.929Z,100138.22
2023-01-13T03:22:58.229Z,100134.50
2023-01-13T03:25:31.343Z,100131.06
2023-01-13T03:31:14.957Z,100129.97
2023-01-13T03:34:01.162Z,100127.25
2023-01-13T03:36:30.439Z,100135.88
2023-01-13T03:39:19.453Z,100127.31
2023-01-13T03:42:19.920Z,100131.59
2023-01-13T03:45:07.633Z,100135.38
2023-01-13T03:47:43.996Z,100120.88
2023-01-13T03:50:28.328Z,100127.31
2023-01-13T03:53:09.473Z,100120.09
2023-01-13T03:55:44.514Z,100113.09
2023-01-13T03:58:32.788Z,100111.75
2023-01-13T04:01:20.710Z,100110.16
2023-01-13T04:04:03.811Z,100102.63
2023-01-13T04:07:04.942Z,100108.00
2023-01-13T04:10:01.866Z,100103.97
2023-01-13T04:12:51.804Z,100108.28
2023-01-13T04:15:22.965Z,100093.78
2023-01-13T04:17:53.260Z,100100.78
2023-01-13T04:20:34.781Z,100098.34
2023-01-13T04:23:04.356Z,100094.34
2023-01-13T04:25:36.146Z,100096.50
2023-01-13T04:28:09.473Z,100080.13
2023-01-13T04:30:48.338Z,100093.00
2023-01-13T04:33:40.014Z,100093.78
2023-01-13T04:36:12.997Z,100098.09
2023-01-13T04:38:53.236Z,100099.69
2023-01-13T04:41:56.178Z,100096.19
2023-01-13T04:44:33.800Z,100094.34
2023-01-13T04:47:06.243Z,100083.63
2023-01-13T04:49:41.889Z,100089.78
2023-01-13T04:52:12.147Z,100086.28
2023-01-13T04:54:44.982Z,100091.13
2023-01-13T04:57:15.478Z,100086.56
2023-01-13T04:59:53.359Z,100085.50
2023-01-13T05:02:26.952Z,100087.91
2023-01-13T05:05:04.969Z,100084.69
2023-01-13T05:07:38.121Z,100077.19
2023-01-13T05:10:11.965Z,100073.44
2023-01-13T05:13:03.882Z,100071.84
2023-01-13T05:16:14.697Z,100073.44
2023-01-13T05:18:49.660Z,100066.75
2023-01-13T05:21:43.832Z,100056.31
2023-01-13T05:24:41.086Z,100060.31
2023-01-13T05:27:33.727Z,100065.13
2023-01-13T05:30:09.860Z,100057.91
2023-01-13T05:32:37.107Z,100061.63
2023-01-13T05:35:06.969Z,100054.13
2023-01-13T05:37:36.306Z,100053.63
2023-01-13T05:40:27.597Z,100056.28
2023-01-13T05:43:41.572Z,100062.72
2023-01-13T05:46:09.478Z,100070.50
2023-01-13T05:48:40.877Z,100070.22
2023-01-13T05:51:08.770Z,100060.03
2023-01-13T05:53:35.752Z,100073.44
2023-01-13T05:56:06.766Z,100080.41
2023-01-13T05:58:38.334Z,100071.31
2023-01-13T06:01:07.367Z,100064.59
2023-01-13T06:03:37.485Z,100064.06
2023-01-13T06:06:12.061Z,100065.91
2023-01-13T06:08:42.271Z,100072.91
2023-01-13T06:11:14.806Z,100082.56
2023-01-13T06:13:41.584Z,100079.34
2023-01-13T06:16:12.528Z,100092.75
2023-01-13T06:18:43.179Z,100090.09
2023-01-13T06:21:10.141Z,100092.19
2023-01-13T06:23:40.028Z,100093.03
2023-01-13T06:26:23.414Z,100106.44
2023-01-13T06:28:50.509Z,100108.31
2023-01-13T06:31:17.664Z,100115.56
2023-01-13T06:33:48.525Z,100111.50
2023-01-13T06:36:22.417Z,100104.53
2023-01-13T06:38:57.485Z,100119.84
2023-01-13T06:41:49.896Z,100142.63
2023-01-13T06:44:20.647Z,100176.09
2023-01-13T06:46:47.816Z,100173.84
2023-01-13T06:49:19.972Z,100177.78
2023-01-13T06:52:03.274Z,100176.63
2023-01-13T06:54:41.829Z,100166.97
2023-01-13T06:57:13.145Z,100172.81
2023-01-13T06:59:50.618Z,100158.56
2023-01-13T07:02:26.473Z,100162.63
2023-01-13T07:05:01.758Z,100159.97
2023-01-13T07:08:00.842Z,100159.47
2023-01-13T07:10:28.513Z,100164.88
2023-01-13T07:13:14.317Z,100153.66
2023-01-13T07:15:41.439Z,100160.13
2023-01-13T07:18:13.215Z,100170.78
2023-01-13T07:20:47.095Z,100155.22
2023-01-13T07:23:17.239Z,100171.28
2023-01-13T07:25:44.359Z,100162.72
2023-01-13T07:28:15.900Z,100174.50
2023-01-13T07:30:47.882Z,100175.03
2023-01-13T07:33:35.979Z,100180.94
2023-01-13T07:36:06.050Z,100181.50
2023-01-13T07:38:35.584Z,100186.06
2023-01-13T07:41:41.678Z,100193.84
2023-01-13T07:44:20.797Z,100177.25
2023-01-13T07:46:50.596Z,100172.41
2023-01-13T07:49:17.970Z,100166.47
2023-01-13T07:51:53.552Z,100159.47
2023-01-13T07:54:25.532Z,100172.84
2023-01-13T07:57:05.463Z,100180.41
2023-01-13T08:03:04.943Z,100192.41
2023-01-13T08:05:35.147Z,100200.97
2023-01-13T08:08:10.935Z,100208.22
2023-01-13T08:13:48.742Z,100218.25
2023-01-13T08:16:15.737Z,100236.63
2023-01-13T08:18:46.152Z,100243.81
2023-01-13T08:21:16.844Z,100241.44
2023-01-13T08:23:46.437Z,100234.28
2023-01-13T08:26:15.464Z,100228.91
2023-01-13T08:28:42.085Z,100236.72
2023-01-13T08:31:16.546Z,100242.31
2023-01-13T08:36:36.718Z,100264.69
2023-01-13T08:39:06.737Z,100276.22
2023-01-13T08:41:52.018Z,100280.91
2023-01-13T08:44:19.280Z,100282.34
2023-01-13T08:46:53.016Z,100288.25
2023-01-13T08:49:44.595Z,100286.72
2023-01-13T08:52:11.807Z,100290.22
2023-01-13T08:54:41.295Z,100290.22
2023-01-13T08:57:15.475Z,100290.16
2023-01-13T08:59:46.398Z,100291.69
2023-01-13T09:02:15.216Z,100300.53
2023-01-13T09:04:46.637Z,100283.72
2023-01-13T09:07:13.708Z,100277.53
2023-01-13T09:09:41.853Z,100300.81
2023-01-13T09:12:30.099Z,100303.94
2023-01-13T09:14:57.182Z,100310.81
2023-01-13T09:17:30.764Z,100317.81
2023-01-13T09:20:05.707Z,100319.56
2023-01-13T09:22:36.981Z,100323.91
2023-01-13T09:25:04.817Z,100321.78
2023-01-13T09:27:33.895Z,100332.63
2023-01-13T09:30:17.591Z,100341.94
2023-01-13T09:32:45.005Z,100351.47
2023-01-13T09:35:14.983Z,100357.16
2023-01-13T09:37:44.901Z,100360.97
2023-01-13T09:40:24.239Z,100358.88
2023-01-13T09:43:19.147Z,100351.41
2023-01-13T09:45:52.586Z,100347.66
2023-01-13T09:48:32.656Z,100366.47
2023-01-13T09:51:13.462Z,100368.91
2023-01-13T09:53:44.496Z,100376.41
2023-01-13T09:56:12.139Z,100378.28
2023-01-13T09:58:38.809Z,100365.94
2023-01-13T10:01:19.382Z,100391.13
2023-01-13T10:03:55.376Z,100384.16
2023-01-13T10:06:34.209Z,100387.63
2023-01-13T10:09:01.319Z,100391.31
2023-01-13T10:12:01.898Z,100381.91
2023-01-13T10:14:38.029Z,100370.63
2023-01-13T10:17:14.947Z,100368.84
2023-01-13T10:19:47.249Z,100368.31
2023-01-13T10:22:36.092Z,100356.81
2023-01-13T10:25:10.204Z,100355.25
2023-01-13T10:27:40.419Z,100349.59
2023-01-13T10:30:13.257Z,100345.03
2023-01-13T10:32:52.825Z,100349.28
2023-01-13T10:35:39.436Z,100351.41
2023-01-13T10:38:23.030Z,100351.38
2023-01-13T10:40:51.563Z,100370.72
2023-01-13T10:43:19.183Z,100377.72
2023-01-13T10:45:56.183Z,100370.69
2023-01-13T10:48:23.786Z,100380.94
2023-01-13T10:50:50.839Z,100374.03
2023-01-13T10:53:25.380Z,100387.47
2023-01-13T10:56:16.193Z,100370.50
2023-01-13T10:58:43.506Z,100376.94
2023-01-13T11:01:31.383Z,100369.16
2023-01-13T11:04:07.774Z,100376.97
2023-01-13T11:06:35.757Z,100384.25
2023-01-13T11:09:30.193Z,100379.44
2023-01-13T11:12:00.609Z,100373.22
2023-01-13T11:14:56.556Z,100375.13
2023-01-13T11:17:50.161Z,100376.19
2023-01-13T11:20:22.219Z,100370.81
2023-01-13T11:22:57.591Z,100376.69
2023-01-13T11:25:45.905Z,100376.16
2023-01-13T11:28:43.463Z,100372.09
2023-01-13T11:31:33.618Z,100368.06
2023-01-13T11:34:14.906Z,100359.22
2023-01-13T11:36:54.179Z,100354.09
2023-01-13T11:39:44.642Z,100340.16
2023-01-13T11:42:36.730Z,100342.28
2023-01-13T11:45:29.690Z,100357.34
2023-01-13T11:48:09.849Z,100368.91
2023-01-13T11:51:19.161Z,100353.97
2023-01-13T11:53:59.662Z,100363.53
2023-01-13T11:56:52.819Z,100359.50
2023-01-13T12:00:01.978Z,100363.88
2023-01-13T12:03:04.828Z,100378.19
2023-01-13T12:05:36.550Z,100368.31
2023-01-13T12:08:12.834Z,100374.25
2023-01-13T12:10:40.803Z,100375.44
2023-01-13T12:13:25.159Z,100387.09
2023-01-13T12:16:02.500Z,100395.19
2023-01-13T12:18:41.784Z,100403.78
2023-01-13T12:21:20.722Z,100414.66
2023-01-13T12:23:55.433Z,100400.47
2023-01-13T12:26:23.794Z,100390.56
2023-01-13T12:29:01.519Z,100406.16
2023-01-13T12:31:33.756Z,100392.69
2023-01-13T12:34:09.960Z,100393.28
2023-01-13T12:36:47.144Z,100380.09
2023-01-13T12:39:36.354Z,100375.63
2023-01-13T12:42:54.008Z,100382.25
2023-01-13T12:45:26.365Z,100370.06
2023-01-13T12:48:21.720Z,100382.72
2023-01-13T12:51:05.723Z,100381.16
2023-01-13T12:53:33.948Z,100391.19
2023-01-13T12:56:26.277Z,100395.75
2023-01-13T12:59:14.810Z,100373.09
2023-01-13T13:01:47.413Z,100364.19
2023-01-13T13:04:18.537Z,100375.88
2023-01-13T13:06:54.095Z,100369.84
2023-01-13T13:09:29.772Z,100369.63
2023-01-13T13:12:00.138Z,100364.97
2023-01-13T13:14:40.319Z,100371.69
2023-01-13T13:17:25.086Z,100383.91
2023-01-13T13:19:52.239Z,100391.72
2023-01-13T13:22:19.991Z,100405.59
2023-01-13T13:24:50.351Z,100397.91
2023-01-13T13:27:28.960Z,100391.50
2023-01-13T13:30:03.727Z,100402.78
2023-01-13T13:33:00.575Z,100402.78
2023-01-13T13:35:30.465Z,100402.50
2023-01-13T13:38:19.009Z,100413.81
2023-01-13T13:41:27.723Z,100428.31
2023-01-13T13:44:12.999Z,100418.91
2023-01-13T13:46:48.475Z,100425.38
2023-01-13T13:49:15.164Z,100449.53
2023-01-13T13:52:02.987Z,100456.00
2023-01-13T13:54:33.481Z,100470.75
2023-01-13T13:57:03.308Z,100480.44
2023-01-13T13:59:30.952Z,100490.56
2023-01-13T14:02:03.679Z,100486.25
2023-01-13T14:04:33.389Z,100485.66
2023-01-13T14:07:05.409Z,100479.16
2023-01-13T14:09:44.448Z,100488.31
2023-01-13T14:12:25.145Z,100508.19
2023-01-13T14:15:07.999Z,100522.06
2023-01-13T14:17:46.135Z,100504.31
2023-01-13T14:20:22.016Z,100492.03
2023-01-13T14:23:02.533Z,100482.44
2023-01-13T14:25:33.777Z,100484.59
2023-01-13T14:28:11.053Z,100472.41
2023-01-13T14:30:45.200Z,100473.88
2023-01-13T14:33:38.954Z,100468.44
2023-01-13T14:36:10.323Z,100468.56
2023-01-13T14:38:37.890Z,100476.03
2023-01-13T14:41:22.967Z,100472.19
2023-01-13T14:43:51.312Z,100481.72
2023-01-13T14:46:29.407Z,100483.78
2023-01-13T14:49:09.220Z,100491.25
2023-01-13T14:51:42.179Z,100493.84
2023-01-13T14:54:49.380Z,100511.75
2023-01-13T14:57:49.222Z,100513.25
2023-01-13T15:00:28.538Z,100514.25
2023-01-13T15:03:20.283Z,100520.38
2023-01-13T15:05:59.677Z,100520.91
2023-01-13T15:08:42.644Z,100535.31
2023-01-13T15:11:26.940Z,100546.34
2023-01-13T15:14:03.704Z,100541.00
2023-01-13T15:16:37.033Z,100546.09
2023-01-13T15:19:23.496Z,100548.31
2023-01-13T15:21:56.571Z,100564.38
2023-01-13T15:24:33.520Z,100564.38
2023-01-13T15:27:14.179Z,100563.47
2023-01-13T15:29:45.691Z,100579.41
2023-01-13T15:32:27.265Z,100580.22
2023-01-13T15:34:57.988Z,100579.41
2023-01-13T15:37:26.166Z,100583.91
2023-01-13T15:39:56.442Z,100585.50
2023-01-13T15:42:42.029Z,100590.28
2023-01-13T15:45:33.564Z,100595.53
2023-01-13T15:48:04.382Z,100594.34
2023-01-13T15:50:33.896Z,100593.44
2023-01-13T15:53:00.462Z,100591.66
2023-01-13T15:55:27.380Z,100598.56
2023-01-13T15:57:57.181Z,100603.34
2023-01-13T16:00:24.484Z,100617.28
2023-01-13T16:02:52.239Z,100618.97
2023-01-13T16:05:45.242Z,100609.22
2023-01-13T16:08:15.378Z,100611.09
2023-01-13T16:10:43.068Z,100613.81
2023-01-13T16:13:09.870Z,100619.75
2023-01-13T16:15:40.631Z,100625.19
2023-01-13T16:18:14.359Z,100631.16
2023-01-13T16:20:44.224Z,100643.78
2023-01-13T16:23:14.431Z,100652.72
2023-01-13T16:25:46.765Z,100649.84
2023-01-13T16:28:19.139Z,100661.00
2023-01-13T16:30:48.837Z,100663.34
2023-01-13T16:33:15.565Z,100659.25
2023-01-13T16:36:08.989Z,100674.56
2023-01-13T16:38:38.162Z,100685.13
2023-01-13T16:41:04.940Z,100686.19
2023-01-13T16:43:32.303Z,100684.00
2023-01-13T16:45:58.989Z,100680.19
2023-01-13T16:48:26.403Z,100695.63
2023-01-13T16:50:53.580Z,100703.56
2023-01-13T16:53:28.648Z,100704.56
2023-01-13T16:55:55.232Z,100715.50
2023-01-13T16:58:24.086Z,100719.31
2023-01-13T17:00:53.415Z,100723.84
2023-01-13T17:03:36.269Z,100734.38
2023-01-13T17:06:12.091Z,100729.34
2023-01-13T17:09:09.723Z,100723.34
2023-01-13T17:11:38.905Z,100729.09
2023-01-13T17:14:18.280Z,100738.34
2023-01-13T17:17:01.284Z,100741.91
2023-01-13T17:19:28.041Z,100740.53
2023-01-13T17:21:55.261Z,100742.63
2023-01-13T17:24:22.072Z,100742.47
2023-01-13T17:26:51.504Z,100740.75
2023-01-13T17:29:38.365Z,100751.22
2023-01-13T17:32:07.572Z,100758.31
2023-01-13T17:34:34.173Z,100762.38
2023-01-13T17:37:00.689Z,100767.63
2023-01-13T17:39:27.450Z,100764.97
2023-01-13T17:44:46.343Z,100763.09
2023-01-13T17:47:16.474Z,100773.44
2023-01-13T17:49:43.494Z,100767.53
2023-01-13T17:52:16.119Z,100768.25
2023-01-13T17:54:45.895Z,100767.44
2023-01-13T17:57:27.417Z,100775.56
2023-01-13T17:59:54.890Z,100775.94
2023-01-13T18:02:21.920Z,100800.47
2023-01-13T18:04:52.095Z,100810.69
2023-01-13T18:07:23.308Z,100806.50
2023-01-13T18:09:50.164Z,100810.34
2023-01-13T18:12:17.487Z,100821.09
2023-01-13T18:14:46.668Z,100820.63
2023-01-13T18:17:19.608Z,100823.19
2023-01-13T18:20:07.849Z,100844.28
2023-01-13T18:22:53.251Z,100851.78
2023-01-13T18:25:39.093Z,100856.81
2023-01-13T18:28:11.757Z,100855.63
2023-01-13T18:30:38.441Z,100857.56
2023-01-13T18:33:05.839Z,100854.00
2023-01-13T18:35:35.720Z,100856.59
2023-01-13T18:38:02.818Z,100866.72
2023-01-13T18:40:35.734Z,100865.19
2023-01-13T18:43:05.724Z,100866.38
2023-01-13T18:45:35.852Z,100878.75
2023-01-13T18:48:12.430Z,100884.03
2023-01-13T18:50:39.313Z,100887.59
2023-01-13T18:53:12.100Z,100896.88
2023-01-13T18:55:45.240Z,100888.22
2023-01-13T18:58:14.942Z,100894.47
2023-01-13T19:00:41.595Z,100888.41
2023-01-13T19:05:36.202Z,100885.16
2023-01-13T19:08:06.213Z,100894.25
2023-01-13T19:10:32.994Z,100901.13
2023-01-13T19:13:03.258Z,100901.69
2023-01-13T19:15:30.473Z,100915.44
2023-01-13T19:17:57.338Z,100912.50
2023-01-13T19:20:27.378Z,100921.47
2023-01-13T19:22:55.418Z,100919.09
2023-01-13T19:25:22.507Z,100907.81
2023-01-13T19:27:49.285Z,100919.09
2023-01-13T19:30:17.518Z,100910.91
2023-01-13T19:32:44.668Z,100942.22
2023-01-13T19:35:18.269Z,100921.88
2023-01-13T19:37:45.684Z,100937.44
2023-01-13T19:40:15.785Z,100936.50
2023-01-13T19:43:01.823Z,100937.06
2023-01-13T19:45:29.608Z,100938.03
2023-01-13T19:47:57.773Z,100941.34
2023-01-13T19:50:25.318Z,100944.59
2023-01-13T19:52:51.972Z,100954.84
2023-01-13T19:55:19.861Z,100957.31
2023-01-13T19:57:47.071Z,100961.16
2023-01-13T20:00:18.466Z,100959.47
2023-01-13T20:02:49.962Z,100962.66
2023-01-13T20:05:26.044Z,100983.47
2023-01-13T20:07:58.530Z,100976.59
2023-01-13T20:10:30.741Z,100983.59
2023-01-13T20:12:58.014Z,100976.66
2023-01-13T20:15:25.297Z,100969.00
2023-01-13T20:17:53.374Z,100966.78
2023-01-13T20:20:21.034Z,100972.25
2023-01-13T20:22:52.462Z,100976.53
2023-01-13T20:25:26.248Z,100990.34
2023-01-13T20:27:53.928Z,100985.81
2023-01-13T20:30:24.182Z,100984.53
2023-01-13T20:32:57.353Z,100981.94
2023-01-13T20:35:29.818Z,100984.19
2023-01-13T20:37:59.548Z,101007.09
2023-01-13T20:40:26.611Z,100996.84
2023-01-13T20:42:56.997Z,100998.00
2023-01-13T20:45:23.792Z,101005.31
2023-01-13T20:47:50.567Z,101013.16
2023-01-13T20:50:17.739Z,101021.50
2023-01-13T20:52:48.259Z,101012.75
2023-01-13T20:55:17.857Z,101012.66
2023-01-13T20:57:48.940Z,101020.56
2023-01-13T21:00:16.143Z,101019.91
2023-01-13T21:02:44.349Z,101032.47
2023-01-13T21:05:11.431Z,101028.63
2023-01-13T21:07:46.319Z,101037.34
2023-01-13T21:10:13.595Z,101027.13
2023-01-13T21:13:02.541Z,101030.59
2023-01-13T21:15:29.447Z,101030.69
2023-01-13T21:18:19.691Z,101020.13
2023-01-13T21:20:46.440Z,101016.53
2023-01-13T21:23:13.571Z,101015.25
2023-01-13T21:25:40.500Z,101021.75
2023-01-13T21:28:11.546Z,101014.19
2023-01-13T21:30:43.644Z,101030.09
2023-01-13T21:33:15.116Z,101032.91
2023-01-13T21:35:45.110Z,101029.28
2023-01-13T21:38:14.457Z,101036.75
2023-01-13T21:40:41.877Z,101044.88
2023-01-13T21:43:34.779Z,101038.72
2023-01-13T21:46:36.407Z,101043.34
2023-01-13T21:49:04.689Z,101042.69
2023-01-13T21:51:32.420Z,101046.97
2023-01-13T21:53:59.732Z,101045.34
2023-01-13T21:56:26.969Z,101055.47
2023-01-13T21:58:57.682Z,101067.56
2023-01-13T22:01:24.600Z,101052.81
2023-01-13T22:04:14.944Z,101053.03
2023-01-13T22:06:41.643Z,101060.69
2023-01-13T22:09:13.237Z,101074.78
2023-01-13T22:11:42.550Z,101083.03
2023-01-13T22:14:11.196Z,101076.97
2023-01-13T22:16:49.407Z,101067.78
2023-01-13T22:19:22.932Z,101059.31
2023-01-13T22:21:50.089Z,101060.59
2023-01-13T22:24:19.723Z,101052.69
2023-01-13T22:26:48.962Z,101048.97
2023-01-13T22:29:15.911Z,101057.13
2023-01-13T22:31:45.796Z,101071.06
2023-01-13T22:34:21.146Z,101062.69
2023-01-13T22:36:50.358Z,101063.88
2023-01-13T22:39:18.448Z,101079.34
2023-01-13T22:41:45.043Z,101094.44
2023-01-13T22:44:14.607Z,101099.44
2023-01-13T22:46:44.822Z,101099.78
2023-01-13T22:49:12.286Z,101099.22
2023-01-13T22:51:45.554Z,101102.69
2023-01-13T22:54:13.450Z,101105.13
2023-01-13T22:56:46.190Z,101101.75
2023-01-13T22:59:13.759Z,101114.09
2023-01-13T23:01:47.082Z,101120.72
2023-01-13T23:04:19.350Z,101115.13
2023-01-13T23:06:52.075Z,101119.91
2023-01-13T23:09:19.122Z,101118.97
2023-01-13T23:11:47.849Z,101115.81
2023-01-13T23:14:15.200Z,101115.81
2023-01-13T23:16:47.680Z,101116.78
2023-01-13T23:19:14.722Z,101114.69
2023-01-13T23:21:44.647Z,101116.88
2023-01-13T23:24:11.775Z,101116.66
2023-01-13T23:26:38.827Z,101129.19
2023-01-13T23:29:11.055Z,101127.25
2023-01-13T23:31:40.742Z,101121.41
2023-01-13T23:34:10.765Z,101125.72
2023-01-13T23:36:43.624Z,101125.25
2023-01-13T23:39:15.590Z,101119.53
2023-01-13T23:41:43.961Z,101114.78
2023-01-13T23:44:13.808Z,101124.47
2023-01-13T23:46:42.667Z,101116.78
2023-01-13T23:49:10.945Z,101121.31
2023-01-13T23:51:37.596Z,101122.59
2023-01-13T23:54:12.118Z,101123.97
2023-01-13T23:56:39.759Z,101112.59
2023-01-13T23:59:09.809Z,101111.44
